sensor_id;sensor_type;location;lat;lon;timestamp;P1;durP1;ratioP1;P2;durP2;ratioP2
71303;SDS011;59091;47.446;19.148;2023-02-05T00:01:00;4.47;;;2.53;;
71303;SDS011;59091;47.446;19.148;2023-02-05T00:03:26;3.25;;;2.05;;
71303;SDS011;59091;47.446;19.148;2023-02-05T00:05:51;4.32;;;2.78;;
71303;SDS011;59091;47.446;19.148;2023-02-05T00:08:16;2.88;;;2.28;;
71303;SDS011;59091;47.446;19.148;2023-02-05T00:10:42;3.72;;;2.50;;
71303;SDS011;59091;47.446;19.148;2023-02-05T00:13:07;5.47;;;2.70;;
71303;SDS011;59091;47.446;19.148;2023-02-05T00:15:33;3.50;;;2.00;;
71303;SDS011;59091;47.446;19.148;2023-02-05T00:18:03;4.45;;;2.40;;
71303;SDS011;59091;47.446;19.148;2023-02-05T00:20:28;3.03;;;2.17;;
71303;SDS011;59091;47.446;19.148;2023-02-05T00:22:54;4.03;;;2.60;;
71303;SDS011;59091;47.446;19.148;2023-02-05T00:25:20;3.00;;;1.85;;
71303;SDS011;59091;47.446;19.148;2023-02-05T00:27:46;5.40;;;2.17;;
71303;SDS011;59091;47.446;19.148;2023-02-05T00:30:11;3.13;;;1.70;;
71303;SDS011;59091;47.446;19.148;2023-02-05T00:32:37;4.57;;;2.22;;
71303;SDS011;59091;47.446;19.148;2023-02-05T00:35:02;3.15;;;2.08;;
71303;SDS011;59091;47.446;19.148;2023-02-05T00:37:28;3.13;;;2.33;;
71303;SDS011;59091;47.446;19.148;2023-02-05T00:39:54;4.88;;;1.70;;
71303;SDS011;59091;47.446;19.148;2023-02-05T00:42:19;3.15;;;2.03;;
71303;SDS011;59091;47.446;19.148;2023-02-05T00:44:45;4.80;;;2.30;;
71303;SDS011;59091;47.446;19.148;2023-02-05T00:47:10;5.03;;;1.98;;
71303;SDS011;59091;47.446;19.148;2023-02-05T00:49:35;4.13;;;2.25;;
71303;SDS011;59091;47.446;19.148;2023-02-05T00:52:01;6.78;;;2.60;;
71303;SDS011;59091;47.446;19.148;2023-02-05T00:54:27;6.63;;;2.15;;
71303;SDS011;59091;47.446;19.148;2023-02-05T00:56:52;3.00;;;2.30;;
71303;SDS011;59091;47.446;19.148;2023-02-05T00:59:18;3.63;;;2.30;;
71303;SDS011;59091;47.446;19.148;2023-02-05T01:01:44;4.35;;;2.08;;
71303;SDS011;59091;47.446;19.148;2023-02-05T01:04:09;8.60;;;2.30;;
71303;SDS011;59091;47.446;19.148;2023-02-05T01:06:34;3.25;;;2.10;;
71303;SDS011;59091;47.446;19.148;2023-02-05T01:09:00;3.50;;;2.30;;
71303;SDS011;59091;47.446;19.148;2023-02-05T01:11:25;4.60;;;2.42;;
71303;SDS011;59091;47.446;19.148;2023-02-05T01:13:50;5.10;;;2.33;;
71303;SDS011;59091;47.446;19.148;2023-02-05T01:16:16;3.00;;;1.80;;
71303;SDS011;59091;47.446;19.148;2023-02-05T01:18:41;4.93;;;2.13;;
71303;SDS011;59091;47.446;19.148;2023-02-05T01:21:07;4.70;;;2.42;;
71303;SDS011;59091;47.446;19.148;2023-02-05T01:23:32;4.07;;;2.15;;
71303;SDS011;59091;47.446;19.148;2023-02-05T01:25:58;3.55;;;1.92;;
71303;SDS011;59091;47.446;19.148;2023-02-05T01:28:23;3.88;;;1.90;;
71303;SDS011;59091;47.446;19.148;2023-02-05T01:30:49;2.97;;;1.73;;
71303;SDS011;59091;47.446;19.148;2023-02-05T01:33:15;3.63;;;1.95;;
71303;SDS011;59091;47.446;19.148;2023-02-05T01:35:41;2.67;;;1.65;;
71303;SDS011;59091;47.446;19.148;2023-02-05T01:38:08;3.63;;;1.95;;
71303;SDS011;59091;47.446;19.148;2023-02-05T01:40:34;5.30;;;1.63;;
71303;SDS011;59091;47.446;19.148;2023-02-05T01:43:00;4.97;;;2.20;;
71303;SDS011;59091;47.446;19.148;2023-02-05T01:53:05;2.13;;;1.90;;
71303;SDS011;59091;47.446;19.148;2023-02-05T01:55:34;4.43;;;1.90;;
71303;SDS011;59091;47.446;19.148;2023-02-05T01:58:04;4.13;;;1.90;;
71303;SDS011;59091;47.446;19.148;2023-02-05T02:00:30;5.60;;;1.80;;
71303;SDS011;59091;47.446;19.148;2023-02-05T02:02:55;3.83;;;1.77;;
71303;SDS011;59091;47.446;19.148;2023-02-05T02:05:23;2.97;;;1.88;;
71303;SDS011;59091;47.446;19.148;2023-02-05T02:07:48;3.90;;;2.08;;
71303;SDS011;59091;47.446;19.148;2023-02-05T02:10:14;3.28;;;2.10;;
71303;SDS011;59091;47.446;19.148;2023-02-05T02:12:42;3.25;;;1.90;;
71303;SDS011;59091;47.446;19.148;2023-02-05T02:15:11;2.35;;;1.75;;
71303;SDS011;59091;47.446;19.148;2023-02-05T02:17:42;4.80;;;2.05;;
71303;SDS011;59091;47.446;19.148;2023-02-05T02:20:11;1.77;;;1.55;;
71303;SDS011;59091;47.446;19.148;2023-02-05T02:33:40;2.70;;;1.98;;
71303;SDS011;59091;47.446;19.148;2023-02-05T02:36:18;3.25;;;2.03;;
71303;SDS011;59091;47.446;19.148;2023-02-05T02:41:45;4.35;;;2.05;;
71303;SDS011;59091;47.446;19.148;2023-02-05T02:44:18;2.25;;;1.85;;
71303;SDS011;59091;47.446;19.148;2023-02-05T02:46:55;3.35;;;2.30;;
71303;SDS011;59091;47.446;19.148;2023-02-05T02:49:46;4.25;;;2.42;;
71303;SDS011;59091;47.446;19.148;2023-02-05T02:52:16;3.58;;;2.53;;
71303;SDS011;59091;47.446;19.148;2023-02-05T02:54:44;2.65;;;1.80;;
71303;SDS011;59091;47.446;19.148;2023-02-05T02:57:13;3.42;;;2.05;;
71303;SDS011;59091;47.446;19.148;2023-02-05T02:59:41;2.83;;;2.00;;
71303;SDS011;59091;47.446;19.148;2023-02-05T03:02:09;2.22;;;2.00;;
71303;SDS011;59091;47.446;19.148;2023-02-05T03:04:37;3.80;;;2.10;;
71303;SDS011;59091;47.446;19.148;2023-02-05T03:07:07;6.13;;;2.28;;
71303;SDS011;59091;47.446;19.148;2023-02-05T03:12:48;3.50;;;2.28;;
71303;SDS011;59091;47.446;19.148;2023-02-05T03:15:14;4.32;;;2.83;;
71303;SDS011;59091;47.446;19.148;2023-02-05T03:17:39;4.50;;;2.63;;
71303;SDS011;59091;47.446;19.148;2023-02-05T03:20:09;4.25;;;2.58;;
71303;SDS011;59091;47.446;19.148;2023-02-05T03:22:39;5.63;;;2.47;;
71303;SDS011;59091;47.446;19.148;2023-02-05T03:25:05;4.47;;;2.45;;
71303;SDS011;59091;47.446;19.148;2023-02-05T03:27:31;3.70;;;1.95;;
71303;SDS011;59091;47.446;19.148;2023-02-05T03:29:57;3.42;;;2.42;;
71303;SDS011;59091;47.446;19.148;2023-02-05T03:38:25;2.75;;;1.98;;
71303;SDS011;59091;47.446;19.148;2023-02-05T03:44:09;3.83;;;2.17;;
71303;SDS011;59091;47.446;19.148;2023-02-05T03:51:51;4.05;;;2.42;;
71303;SDS011;59091;47.446;19.148;2023-02-05T03:57:17;3.70;;;2.78;;
71303;SDS011;59091;47.446;19.148;2023-02-05T03:59:43;3.92;;;2.58;;
71303;SDS011;59091;47.446;19.148;2023-02-05T04:02:09;3.80;;;2.67;;
71303;SDS011;59091;47.446;19.148;2023-02-05T04:04:36;4.55;;;2.58;;
71303;SDS011;59091;47.446;19.148;2023-02-05T04:07:01;5.03;;;2.58;;
71303;SDS011;59091;47.446;19.148;2023-02-05T04:09:27;3.97;;;2.53;;
71303;SDS011;59091;47.446;19.148;2023-02-05T04:11:53;5.63;;;2.47;;
71303;SDS011;59091;47.446;19.148;2023-02-05T04:14:18;3.85;;;2.15;;
71303;SDS011;59091;47.446;19.148;2023-02-05T04:16:43;4.50;;;2.15;;
71303;SDS011;59091;47.446;19.148;2023-02-05T04:19:09;4.28;;;2.47;;
71303;SDS011;59091;47.446;19.148;2023-02-05T04:21:34;3.95;;;2.28;;
71303;SDS011;59091;47.446;19.148;2023-02-05T04:24:00;3.88;;;2.40;;
71303;SDS011;59091;47.446;19.148;2023-02-05T04:26:25;3.85;;;2.42;;
71303;SDS011;59091;47.446;19.148;2023-02-05T04:28:50;6.47;;;2.60;;
71303;SDS011;59091;47.446;19.148;2023-02-05T04:31:16;3.85;;;2.30;;
71303;SDS011;59091;47.446;19.148;2023-02-05T04:33:41;3.75;;;2.45;;
71303;SDS011;59091;47.446;19.148;2023-02-05T04:36:07;3.97;;;2.33;;
71303;SDS011;59091;47.446;19.148;2023-02-05T04:38:33;4.70;;;2.22;;
71303;SDS011;59091;47.446;19.148;2023-02-05T04:40:59;4.22;;;2.22;;
71303;SDS011;59091;47.446;19.148;2023-02-05T04:43:24;5.45;;;2.70;;
71303;SDS011;59091;47.446;19.148;2023-02-05T04:45:50;3.70;;;2.25;;
71303;SDS011;59091;47.446;19.148;2023-02-05T04:48:15;3.15;;;2.13;;
71303;SDS011;59091;47.446;19.148;2023-02-05T04:50:41;4.68;;;2.28;;
71303;SDS011;59091;47.446;19.148;2023-02-05T04:53:06;3.65;;;2.20;;
71303;SDS011;59091;47.446;19.148;2023-02-05T04:55:32;3.30;;;2.10;;
71303;SDS011;59091;47.446;19.148;2023-02-05T04:57:57;2.40;;;2.00;;
71303;SDS011;59091;47.446;19.148;2023-02-05T05:00:23;3.70;;;2.17;;
71303;SDS011;59091;47.446;19.148;2023-02-05T05:02:49;3.60;;;2.22;;
71303;SDS011;59091;47.446;19.148;2023-02-05T05:05:15;4.05;;;1.98;;
71303;SDS011;59091;47.446;19.148;2023-02-05T05:07:41;4.45;;;1.88;;
71303;SDS011;59091;47.446;19.148;2023-02-05T05:10:06;3.58;;;2.50;;
71303;SDS011;59091;47.446;19.148;2023-02-05T05:12:33;5.45;;;2.28;;
71303;SDS011;59091;47.446;19.148;2023-02-05T05:14:59;6.55;;;2.28;;
71303;SDS011;59091;47.446;19.148;2023-02-05T05:17:25;3.70;;;2.35;;
71303;SDS011;59091;47.446;19.148;2023-02-05T05:19:51;4.72;;;2.40;;
71303;SDS011;59091;47.446;19.148;2023-02-05T05:22:16;3.20;;;2.28;;
71303;SDS011;59091;47.446;19.148;2023-02-05T05:24:41;3.10;;;2.10;;
71303;SDS011;59091;47.446;19.148;2023-02-05T05:27:07;6.65;;;2.55;;
71303;SDS011;59091;47.446;19.148;2023-02-05T05:29:32;5.80;;;2.28;;
71303;SDS011;59091;47.446;19.148;2023-02-05T05:31:59;5.30;;;2.45;;
71303;SDS011;59091;47.446;19.148;2023-02-05T05:34:24;2.25;;;2.00;;
71303;SDS011;59091;47.446;19.148;2023-02-05T05:36:49;3.78;;;2.08;;
71303;SDS011;59091;47.446;19.148;2023-02-05T05:39:15;2.88;;;2.20;;
71303;SDS011;59091;47.446;19.148;2023-02-05T05:41:59;4.00;;;2.40;;
71303;SDS011;59091;47.446;19.148;2023-02-05T05:47:08;4.32;;;2.20;;
71303;SDS011;59091;47.446;19.148;2023-02-05T05:49:34;6.25;;;2.70;;
71303;SDS011;59091;47.446;19.148;2023-02-05T05:51:59;2.88;;;2.30;;
71303;SDS011;59091;47.446;19.148;2023-02-05T05:54:25;3.50;;;2.25;;
71303;SDS011;59091;47.446;19.148;2023-02-05T05:56:50;6.45;;;2.90;;
71303;SDS011;59091;47.446;19.148;2023-02-05T05:59:15;3.20;;;2.25;;
71303;SDS011;59091;47.446;19.148;2023-02-05T06:01:41;4.40;;;2.35;;
71303;SDS011;59091;47.446;19.148;2023-02-05T06:04:06;5.80;;;2.40;;
71303;SDS011;59091;47.446;19.148;2023-02-05T06:06:32;3.13;;;2.08;;
71303;SDS011;59091;47.446;19.148;2023-02-05T06:08:57;3.38;;;2.25;;
71303;SDS011;59091;47.446;19.148;2023-02-05T06:11:23;4.50;;;2.20;;
71303;SDS011;59091;47.446;19.148;2023-02-05T06:13:48;4.10;;;2.20;;
71303;SDS011;59091;47.446;19.148;2023-02-05T06:16:14;4.03;;;2.25;;
71303;SDS011;59091;47.446;19.148;2023-02-05T06:18:39;4.25;;;2.03;;
71303;SDS011;59091;47.446;19.148;2023-02-05T06:21:04;2.67;;;1.75;;
71303;SDS011;59091;47.446;19.148;2023-02-05T06:23:30;2.65;;;2.03;;
71303;SDS011;59091;47.446;19.148;2023-02-05T06:25:56;3.80;;;2.15;;
71303;SDS011;59091;47.446;19.148;2023-02-05T06:28:22;3.28;;;1.80;;
71303;SDS011;59091;47.446;19.148;2023-02-05T06:30:48;2.42;;;1.95;;
71303;SDS011;59091;47.446;19.148;2023-02-05T06:33:13;4.50;;;2.15;;
71303;SDS011;59091;47.446;19.148;2023-02-05T06:35:39;4.10;;;2.03;;
71303;SDS011;59091;47.446;19.148;2023-02-05T06:38:05;3.83;;;1.88;;
71303;SDS011;59091;47.446;19.148;2023-02-05T06:40:30;3.63;;;1.77;;
71303;SDS011;59091;47.446;19.148;2023-02-05T06:42:56;3.20;;;2.13;;
71303;SDS011;59091;47.446;19.148;2023-02-05T06:45:21;3.25;;;2.05;;
71303;SDS011;59091;47.446;19.148;2023-02-05T06:47:47;4.28;;;2.35;;
71303;SDS011;59091;47.446;19.148;2023-02-05T06:50:12;4.75;;;2.15;;
71303;SDS011;59091;47.446;19.148;2023-02-05T06:52:38;2.05;;;1.55;;
71303;SDS011;59091;47.446;19.148;2023-02-05T06:55:03;4.70;;;2.25;;
71303;SDS011;59091;47.446;19.148;2023-02-05T06:57:29;5.05;;;2.47;;
71303;SDS011;59091;47.446;19.148;2023-02-05T06:59:56;3.75;;;2.67;;
71303;SDS011;59091;47.446;19.148;2023-02-05T07:02:22;4.30;;;2.33;;
71303;SDS011;59091;47.446;19.148;2023-02-05T07:04:47;3.78;;;2.50;;
71303;SDS011;59091;47.446;19.148;2023-02-05T07:07:13;7.30;;;3.10;;
71303;SDS011;59091;47.446;19.148;2023-02-05T07:09:40;6.15;;;2.08;;
71303;SDS011;59091;47.446;19.148;2023-02-05T07:12:06;4.95;;;2.50;;
71303;SDS011;59091;47.446;19.148;2023-02-05T07:14:35;5.25;;;2.92;;
71303;SDS011;59091;47.446;19.148;2023-02-05T07:17:01;3.83;;;2.38;;
71303;SDS011;59091;47.446;19.148;2023-02-05T07:19:27;4.93;;;2.30;;
71303;SDS011;59091;47.446;19.148;2023-02-05T07:21:52;3.38;;;2.30;;
71303;SDS011;59091;47.446;19.148;2023-02-05T07:24:18;4.60;;;2.42;;
71303;SDS011;59091;47.446;19.148;2023-02-05T07:26:43;5.13;;;2.70;;
71303;SDS011;59091;47.446;19.148;2023-02-05T07:29:09;6.10;;;4.00;;
71303;SDS011;59091;47.446;19.148;2023-02-05T07:31:35;4.65;;;2.90;;
71303;SDS011;59091;47.446;19.148;2023-02-05T07:34:01;8.57;;;3.50;;
71303;SDS011;59091;47.446;19.148;2023-02-05T07:36:27;7.05;;;2.97;;
71303;SDS011;59091;47.446;19.148;2023-02-05T07:38:52;5.53;;;3.13;;
71303;SDS011;59091;47.446;19.148;2023-02-05T07:41:18;5.80;;;2.80;;
71303;SDS011;59091;47.446;19.148;2023-02-05T07:43:43;6.00;;;3.75;;
71303;SDS011;59091;47.446;19.148;2023-02-05T07:46:10;7.85;;;3.10;;
71303;SDS011;59091;47.446;19.148;2023-02-05T07:48:37;4.95;;;3.13;;
71303;SDS011;59091;47.446;19.148;2023-02-05T07:51:02;4.05;;;2.58;;
71303;SDS011;59091;47.446;19.148;2023-02-05T07:53:28;4.10;;;2.58;;
71303;SDS011;59091;47.446;19.148;2023-02-05T07:55:54;4.78;;;2.20;;
71303;SDS011;59091;47.446;19.148;2023-02-05T07:58:19;5.47;;;2.72;;
71303;SDS011;59091;47.446;19.148;2023-02-05T08:00:45;4.80;;;3.03;;
71303;SDS011;59091;47.446;19.148;2023-02-05T08:03:10;2.47;;;2.17;;
71303;SDS011;59091;47.446;19.148;2023-02-05T08:05:36;6.90;;;2.70;;
71303;SDS011;59091;47.446;19.148;2023-02-05T08:08:03;7.30;;;2.67;;
71303;SDS011;59091;47.446;19.148;2023-02-05T08:10:29;8.10;;;2.70;;
71303;SDS011;59091;47.446;19.148;2023-02-05T08:12:54;3.58;;;2.72;;
71303;SDS011;59091;47.446;19.148;2023-02-05T08:15:20;6.15;;;3.00;;
71303;SDS011;59091;47.446;19.148;2023-02-05T08:17:45;4.10;;;2.90;;
71303;SDS011;59091;47.446;19.148;2023-02-05T08:20:11;5.35;;;3.15;;
71303;SDS011;59091;47.446;19.148;2023-02-05T08:22:37;3.85;;;2.58;;
71303;SDS011;59091;47.446;19.148;2023-02-05T08:25:05;3.28;;;2.25;;
71303;SDS011;59091;47.446;19.148;2023-02-05T08:27:33;5.00;;;2.97;;
71303;SDS011;59091;47.446;19.148;2023-02-05T08:30:03;7.32;;;3.00;;
71303;SDS011;59091;47.446;19.148;2023-02-05T08:32:29;3.90;;;2.35;;
71303;SDS011;59091;47.446;19.148;2023-02-05T08:34:54;6.57;;;3.00;;
71303;SDS011;59091;47.446;19.148;2023-02-05T08:37:20;4.88;;;3.17;;
71303;SDS011;59091;47.446;19.148;2023-02-05T08:39:45;7.40;;;3.10;;
71303;SDS011;59091;47.446;19.148;2023-02-05T08:42:11;3.75;;;2.50;;
71303;SDS011;59091;47.446;19.148;2023-02-05T08:44:37;4.43;;;2.97;;
71303;SDS011;59091;47.446;19.148;2023-02-05T08:47:02;3.60;;;2.47;;
71303;SDS011;59091;47.446;19.148;2023-02-05T08:49:28;4.28;;;2.72;;
71303;SDS011;59091;47.446;19.148;2023-02-05T08:51:53;3.70;;;2.35;;
71303;SDS011;59091;47.446;19.148;2023-02-05T08:54:18;6.13;;;3.05;;
71303;SDS011;59091;47.446;19.148;2023-02-05T08:56:44;6.03;;;3.15;;
71303;SDS011;59091;47.446;19.148;2023-02-05T08:59:12;4.00;;;2.35;;
71303;SDS011;59091;47.446;19.148;2023-02-05T09:01:38;5.47;;;2.95;;
71303;SDS011;59091;47.446;19.148;2023-02-05T09:04:07;6.85;;;3.00;;
71303;SDS011;59091;47.446;19.148;2023-02-05T09:06:36;3.05;;;2.20;;
71303;SDS011;59091;47.446;19.148;2023-02-05T09:09:01;5.15;;;2.70;;
71303;SDS011;59091;47.446;19.148;2023-02-05T09:11:27;4.75;;;2.78;;
71303;SDS011;59091;47.446;19.148;2023-02-05T09:13:54;5.00;;;2.75;;
71303;SDS011;59091;47.446;19.148;2023-02-05T09:16:20;6.38;;;2.45;;
71303;SDS011;59091;47.446;19.148;2023-02-05T09:18:46;4.57;;;2.75;;
71303;SDS011;59091;47.446;19.148;2023-02-05T09:21:11;12.20;;;2.83;;
71303;SDS011;59091;47.446;19.148;2023-02-05T09:23:37;5.75;;;2.90;;
71303;SDS011;59091;47.446;19.148;2023-02-05T09:26:03;5.28;;;2.97;;
71303;SDS011;59091;47.446;19.148;2023-02-05T09:28:29;3.72;;;2.85;;
71303;SDS011;59091;47.446;19.148;2023-02-05T09:30:54;5.97;;;3.17;;
71303;SDS011;59091;47.446;19.148;2023-02-05T09:33:20;5.70;;;2.92;;
71303;SDS011;59091;47.446;19.148;2023-02-05T09:35:45;5.03;;;3.03;;
71303;SDS011;59091;47.446;19.148;2023-02-05T09:38:14;5.75;;;2.53;;
71303;SDS011;59091;47.446;19.148;2023-02-05T09:40:43;6.10;;;2.83;;
71303;SDS011;59091;47.446;19.148;2023-02-05T09:51:00;5.18;;;3.15;;
71303;SDS011;59091;47.446;19.148;2023-02-05T09:53:27;4.18;;;2.67;;
71303;SDS011;59091;47.446;19.148;2023-02-05T09:55:57;7.05;;;2.50;;
71303;SDS011;59091;47.446;19.148;2023-02-05T09:58:27;4.93;;;2.70;;
71303;SDS011;59091;47.446;19.148;2023-02-05T10:01:03;4.07;;;2.60;;
71303;SDS011;59091;47.446;19.148;2023-02-05T10:20:32;4.35;;;2.38;;
71303;SDS011;59091;47.446;19.148;2023-02-05T10:22:53;3.92;;;2.50;;
71303;SDS011;59091;47.446;19.148;2023-02-05T10:25:32;6.78;;;3.83;;
71303;SDS011;59091;47.446;19.148;2023-02-05T10:30:51;3.90;;;2.50;;
71303;SDS011;59091;47.446;19.148;2023-02-05T10:33:32;3.75;;;2.42;;
71303;SDS011;59091;47.446;19.148;2023-02-05T10:36:04;4.97;;;2.20;;
71303;SDS011;59091;47.446;19.148;2023-02-05T10:38:34;3.55;;;2.15;;
71303;SDS011;59091;47.446;19.148;2023-02-05T10:41:06;3.72;;;2.22;;
71303;SDS011;59091;47.446;19.148;2023-02-05T10:44:13;3.38;;;2.50;;
71303;SDS011;59091;47.446;19.148;2023-02-05T10:47:02;3.03;;;2.20;;
71303;SDS011;59091;47.446;19.148;2023-02-05T10:49:43;5.97;;;2.92;;
71303;SDS011;59091;47.446;19.148;2023-02-05T10:52:14;6.68;;;2.60;;
71303;SDS011;59091;47.446;19.148;2023-02-05T10:54:40;3.58;;;2.10;;
71303;SDS011;59091;47.446;19.148;2023-02-05T10:57:13;7.43;;;2.70;;
71303;SDS011;59091;47.446;19.148;2023-02-05T10:59:46;4.13;;;2.35;;
71303;SDS011;59091;47.446;19.148;2023-02-05T11:02:17;4.05;;;2.33;;
71303;SDS011;59091;47.446;19.148;2023-02-05T11:04:49;7.25;;;2.70;;
71303;SDS011;59091;47.446;19.148;2023-02-05T11:07:32;3.58;;;2.47;;
71303;SDS011;59091;47.446;19.148;2023-02-05T11:10:14;5.88;;;2.85;;
71303;SDS011;59091;47.446;19.148;2023-02-05T11:12:54;4.43;;;2.67;;
71303;SDS011;59091;47.446;19.148;2023-02-05T11:15:27;5.13;;;2.33;;
71303;SDS011;59091;47.446;19.148;2023-02-05T11:17:58;3.00;;;2.03;;
71303;SDS011;59091;47.446;19.148;2023-02-05T11:20:46;4.38;;;2.40;;
71303;SDS011;59091;47.446;19.148;2023-02-05T11:23:26;4.78;;;2.53;;
71303;SDS011;59091;47.446;19.148;2023-02-05T11:26:07;3.65;;;2.67;;
71303;SDS011;59091;47.446;19.148;2023-02-05T11:28:38;4.30;;;2.72;;
71303;SDS011;59091;47.446;19.148;2023-02-05T11:33:49;4.68;;;2.38;;
71303;SDS011;59091;47.446;19.148;2023-02-05T11:36:20;3.67;;;2.60;;
71303;SDS011;59091;47.446;19.148;2023-02-05T11:38:54;4.32;;;2.63;;
71303;SDS011;59091;47.446;19.148;2023-02-05T11:44:26;5.35;;;2.70;;
71303;SDS011;59091;47.446;19.148;2023-02-05T11:46:54;2.95;;;2.35;;
71303;SDS011;59091;47.446;19.148;2023-02-05T11:49:23;3.13;;;2.10;;
71303;SDS011;59091;47.446;19.148;2023-02-05T11:51:55;3.22;;;2.17;;
71303;SDS011;59091;47.446;19.148;2023-02-05T11:57:01;2.83;;;1.88;;
71303;SDS011;59091;47.446;19.148;2023-02-05T11:59:31;2.35;;;1.90;;
71303;SDS011;59091;47.446;19.148;2023-02-05T12:05:01;4.05;;;2.45;;
71303;SDS011;59091;47.446;19.148;2023-02-05T12:10:29;4.80;;;3.47;;
71303;SDS011;59091;47.446;19.148;2023-02-05T12:13:05;6.57;;;3.08;;
71303;SDS011;59091;47.446;19.148;2023-02-05T12:27:19;4.05;;;2.80;;
71303;SDS011;59091;47.446;19.148;2023-02-05T12:35:30;2.53;;;2.20;;
71303;SDS011;59091;47.446;19.148;2023-02-05T12:41:06;7.50;;;2.72;;
71303;SDS011;59091;47.446;19.148;2023-02-05T12:43:37;6.45;;;4.22;;
71303;SDS011;59091;47.446;19.148;2023-02-05T12:51:30;10.13;;;4.90;;
71303;SDS011;59091;47.446;19.148;2023-02-05T12:57:34;2.85;;;2.17;;
71303;SDS011;59091;47.446;19.148;2023-02-05T13:00:22;2.97;;;2.13;;
71303;SDS011;59091;47.446;19.148;2023-02-05T13:05:49;3.53;;;2.17;;
71303;SDS011;59091;47.446;19.148;2023-02-05T13:11:06;2.85;;;2.15;;
71303;SDS011;59091;47.446;19.148;2023-02-05T13:13:43;3.28;;;2.17;;
71303;SDS011;59091;47.446;19.148;2023-02-05T13:16:16;3.22;;;2.40;;
71303;SDS011;59091;47.446;19.148;2023-02-05T13:18:50;4.43;;;2.25;;
71303;SDS011;59091;47.446;19.148;2023-02-05T13:21:22;4.70;;;2.50;;
71303;SDS011;59091;47.446;19.148;2023-02-05T13:26:53;9.90;;;6.32;;
71303;SDS011;59091;47.446;19.148;2023-02-05T13:29:42;4.72;;;2.67;;
71303;SDS011;59091;47.446;19.148;2023-02-05T13:32:15;3.20;;;2.30;;
71303;SDS011;59091;47.446;19.148;2023-02-05T13:34:42;4.10;;;2.53;;
71303;SDS011;59091;47.446;19.148;2023-02-05T13:39:51;7.80;;;3.50;;
71303;SDS011;59091;47.446;19.148;2023-02-05T13:58:35;3.13;;;2.08;;
71303;SDS011;59091;47.446;19.148;2023-02-05T14:04:03;4.10;;;2.17;;
71303;SDS011;59091;47.446;19.148;2023-02-05T14:06:33;5.15;;;2.53;;
71303;SDS011;59091;47.446;19.148;2023-02-05T14:14:37;3.17;;;2.40;;
71303;SDS011;59091;47.446;19.148;2023-02-05T14:19:52;5.50;;;2.50;;
71303;SDS011;59091;47.446;19.148;2023-02-05T14:28:48;11.30;;;7.07;;
71303;SDS011;59091;47.446;19.148;2023-02-05T14:30:54;7.28;;;4.10;;
71303;SDS011;59091;47.446;19.148;2023-02-05T14:33:32;6.80;;;2.80;;
71303;SDS011;59091;47.446;19.148;2023-02-05T14:44:05;3.47;;;2.08;;
71303;SDS011;59091;47.446;19.148;2023-02-05T14:46:59;3.70;;;2.40;;
71303;SDS011;59091;47.446;19.148;2023-02-05T14:49:43;4.72;;;2.42;;
71303;SDS011;59091;47.446;19.148;2023-02-05T14:52:27;4.68;;;2.72;;
71303;SDS011;59091;47.446;19.148;2023-02-05T15:00:20;3.95;;;2.60;;
71303;SDS011;59091;47.446;19.148;2023-02-05T15:06:00;5.78;;;2.80;;
71303;SDS011;59091;47.446;19.148;2023-02-05T15:13:29;3.88;;;2.42;;
71303;SDS011;59091;47.446;19.148;2023-02-05T15:18:49;7.47;;;2.50;;
71303;SDS011;59091;47.446;19.148;2023-02-05T15:21:31;3.13;;;1.98;;
71303;SDS011;59091;47.446;19.148;2023-02-05T15:29:12;2.80;;;2.28;;
71303;SDS011;59091;47.446;19.148;2023-02-05T15:31:47;3.40;;;1.87;;
71303;SDS011;59091;47.446;19.148;2023-02-05T15:34:25;5.90;;;2.38;;
71303;SDS011;59091;47.446;19.148;2023-02-05T15:39:51;3.58;;;2.50;;
71303;SDS011;59091;47.446;19.148;2023-02-05T15:42:21;3.08;;;2.20;;
71303;SDS011;59091;47.446;19.148;2023-02-05T15:44:51;2.80;;;1.95;;
71303;SDS011;59091;47.446;19.148;2023-02-05T15:47:18;3.55;;;2.15;;
71303;SDS011;59091;47.446;19.148;2023-02-05T15:49:47;3.58;;;2.13;;
71303;SDS011;59091;47.446;19.148;2023-02-05T15:52:16;4.15;;;2.80;;
71303;SDS011;59091;47.446;19.148;2023-02-05T15:54:47;3.78;;;2.15;;
71303;SDS011;59091;47.446;19.148;2023-02-05T15:57:21;5.15;;;2.35;;
71303;SDS011;59091;47.446;19.148;2023-02-05T15:59:50;4.15;;;3.00;;
71303;SDS011;59091;47.446;19.148;2023-02-05T16:02:22;5.05;;;2.72;;
71303;SDS011;59091;47.446;19.148;2023-02-05T16:04:56;3.05;;;2.40;;
71303;SDS011;59091;47.446;19.148;2023-02-05T16:07:48;4.45;;;2.60;;
71303;SDS011;59091;47.446;19.148;2023-02-05T16:10:29;4.78;;;2.45;;
71303;SDS011;59091;47.446;19.148;2023-02-05T16:12:57;4.53;;;2.83;;
71303;SDS011;59091;47.446;19.148;2023-02-05T16:18:56;4.90;;;3.53;;
71303;SDS011;59091;47.446;19.148;2023-02-05T16:23:44;5.80;;;3.30;;
71303;SDS011;59091;47.446;19.148;2023-02-05T16:26:41;9.38;;;3.40;;
71303;SDS011;59091;47.446;19.148;2023-02-05T16:29:18;14.68;;;4.30;;
71303;SDS011;59091;47.446;19.148;2023-02-05T16:31:55;8.68;;;4.07;;
71303;SDS011;59091;47.446;19.148;2023-02-05T16:34:35;11.02;;;5.20;;
71303;SDS011;59091;47.446;19.148;2023-02-05T16:37:04;10.00;;;4.60;;
71303;SDS011;59091;47.446;19.148;2023-02-05T16:39:37;9.55;;;4.00;;
71303;SDS011;59091;47.446;19.148;2023-02-05T16:42:29;6.93;;;3.95;;
71303;SDS011;59091;47.446;19.148;2023-02-05T16:47:34;9.00;;;4.70;;
71303;SDS011;59091;47.446;19.148;2023-02-05T16:50:01;11.43;;;4.90;;
71303;SDS011;59091;47.446;19.148;2023-02-05T16:53:00;10.63;;;4.68;;
71303;SDS011;59091;47.446;19.148;2023-02-05T16:57:53;14.43;;;6.32;;
71303;SDS011;59091;47.446;19.148;2023-02-05T17:00:26;31.77;;;13.85;;
71303;SDS011;59091;47.446;19.148;2023-02-05T17:02:54;21.05;;;9.77;;
71303;SDS011;59091;47.446;19.148;2023-02-05T17:05:23;11.98;;;6.22;;
71303;SDS011;59091;47.446;19.148;2023-02-05T17:08:05;17.87;;;6.70;;
71303;SDS011;59091;47.446;19.148;2023-02-05T17:18:58;9.05;;;5.20;;
71303;SDS011;59091;47.446;19.148;2023-02-05T17:21:27;10.93;;;5.95;;
71303;SDS011;59091;47.446;19.148;2023-02-05T17:23:59;12.43;;;6.07;;
71303;SDS011;59091;47.446;19.148;2023-02-05T17:26:27;15.52;;;7.25;;
71303;SDS011;59091;47.446;19.148;2023-02-05T17:29:02;14.90;;;6.75;;
71303;SDS011;59091;47.446;19.148;2023-02-05T17:31:29;22.92;;;9.00;;
71303;SDS011;59091;47.446;19.148;2023-02-05T17:33:58;19.23;;;8.98;;
71303;SDS011;59091;47.446;19.148;2023-02-05T17:36:24;21.77;;;9.05;;
71303;SDS011;59091;47.446;19.148;2023-02-05T17:38:49;13.80;;;6.72;;
71303;SDS011;59091;47.446;19.148;2023-02-05T17:41:37;11.02;;;5.95;;
71303;SDS011;59091;47.446;19.148;2023-02-05T17:44:20;12.35;;;5.80;;
71303;SDS011;59091;47.446;19.148;2023-02-05T17:46:45;13.60;;;6.22;;
71303;SDS011;59091;47.446;19.148;2023-02-05T17:49:11;10.38;;;5.30;;
71303;SDS011;59091;47.446;19.148;2023-02-05T17:51:36;9.02;;;4.38;;
71303;SDS011;59091;47.446;19.148;2023-02-05T17:54:09;12.88;;;5.22;;
71303;SDS011;59091;47.446;19.148;2023-02-05T17:56:42;11.23;;;4.55;;
71303;SDS011;59091;47.446;19.148;2023-02-05T17:59:16;8.75;;;4.60;;
71303;SDS011;59091;47.446;19.148;2023-02-05T18:01:43;12.10;;;5.30;;
71303;SDS011;59091;47.446;19.148;2023-02-05T18:04:09;8.68;;;4.55;;
71303;SDS011;59091;47.446;19.148;2023-02-05T18:06:36;11.90;;;5.70;;
71303;SDS011;59091;47.446;19.148;2023-02-05T18:09:03;11.65;;;4.88;;
71303;SDS011;59091;47.446;19.148;2023-02-05T18:11:29;10.98;;;5.00;;
71303;SDS011;59091;47.446;19.148;2023-02-05T18:13:55;8.70;;;4.80;;
71303;SDS011;59091;47.446;19.148;2023-02-05T18:16:21;7.93;;;4.72;;